Portada
METAR-TAF:

METAR-TAF

Aeropuertos :

El Bayadh, Argelia

latitud: 33-43-15N, longitud: 1-05-29E, altitud: 1366 m

Observación

El informe se hizo hace 43 minutos, a las 16:00 UTC
Viento 9 kt del norte
Temperatura 9°C
Humedad 43%
Presión 1030 hPa
Visibilidad 10 km o más
sin nubes por debajo de 1500 m y sin presencia de cumulonimbus.

METAR: DAOY 171600Z 36009KT CAVOK 09/M03 Q1030

Hora: 17:43 (16:43 UTC)


TAF: falta

Observaciones y pronósticos meteorológicos de más de 4000 aeropuertos (mensajes METAR y TAF).

Los puntos amarillos y rojos representan las estaciones disponibles.

Ponga el ratón en el punto deseado para ver el nombre de la estación.

Haga clic para ver las observaciones y los pronósticos meteorológicos.

Para cambiar el mapa : haga clic en los botones verdes con una cruz de color negro para hacer un zoom, en el botón verde con un guión para alejar o en las flechas verdes para mapas adyacentes.


METAR-TAF: